createdAt,value
2018-07-09T00:01:21.748Z,99.90
2018-07-09T00:03:50.109Z,99.90
2018-07-09T00:06:18.366Z,99.90
2018-07-09T00:08:46.692Z,99.90
2018-07-09T00:11:15.237Z,99.90
2018-07-09T00:13:43.467Z,99.90
2018-07-09T00:16:12.107Z,99.90
2018-07-09T00:18:40.358Z,99.90
2018-07-09T00:21:08.612Z,99.90
2018-07-09T00:23:37.155Z,99.90
2018-07-09T00:26:05.480Z,99.90
2018-07-09T00:28:34.132Z,99.90
2018-07-09T00:31:02.894Z,99.90
2018-07-09T00:33:31.133Z,99.90
2018-07-09T00:35:59.410Z,99.90
2018-07-09T00:38:27.632Z,99.90
2018-07-09T00:40:55.916Z,99.90
2018-07-09T00:43:24.154Z,99.90
2018-07-09T00:48:20.795Z,99.90
2018-07-09T00:50:49.067Z,99.90
2018-07-09T00:53:18.041Z,99.90
2018-07-09T00:55:46.281Z,99.90
2018-07-09T00:58:14.508Z,99.90
2018-07-09T01:00:43.138Z,99.90
2018-07-09T01:03:11.370Z,99.90
2018-07-09T01:05:39.620Z,99.90
2018-07-09T01:08:09.310Z,99.90
2018-07-09T01:10:43.096Z,99.90
2018-07-09T01:13:11.327Z,99.90
2018-07-09T01:15:40.035Z,99.90
2018-07-09T01:18:08.355Z,99.90
2018-07-09T01:20:36.600Z,99.90
2018-07-09T01:23:05.392Z,99.90
2018-07-09T01:25:33.887Z,99.90
2018-07-09T01:28:02.110Z,99.90
2018-07-09T01:30:34.436Z,99.90
2018-07-09T01:33:02.752Z,99.90
2018-07-09T01:35:30.977Z,99.90
2018-07-09T01:37:59.220Z,99.90
2018-07-09T01:40:27.521Z,99.90
2018-07-09T01:42:55.771Z,99.90
2018-07-09T01:45:24.330Z,99.90
2018-07-09T01:47:52.669Z,99.90
2018-07-09T01:50:20.981Z,99.90
2018-07-09T01:52:49.650Z,99.90
2018-07-09T01:55:17.895Z,99.90
2018-07-09T01:57:46.184Z,99.90
2018-07-09T02:00:14.805Z,99.90
2018-07-09T02:02:43.073Z,99.90
2018-07-09T02:05:12.018Z,99.90
2018-07-09T02:07:40.750Z,99.90
2018-07-09T02:10:09.081Z,99.90
2018-07-09T02:12:37.420Z,99.90
2018-07-09T02:15:05.924Z,99.90
2018-07-09T02:17:34.265Z,99.90
2018-07-09T02:20:02.750Z,99.90
2018-07-09T02:22:32.053Z,99.90
2018-07-09T02:25:00.474Z,99.90
2018-07-09T02:27:28.818Z,99.90
2018-07-09T02:36:35.888Z,99.90
2018-07-09T02:39:05.488Z,99.90
2018-07-09T02:41:33.797Z,99.90
2018-07-09T02:44:02.815Z,99.90
2018-07-09T02:46:31.176Z,99.90
2018-07-09T02:48:59.664Z,99.90
2018-07-09T02:51:28.502Z,99.90
2018-07-09T02:53:56.832Z,99.90
2018-07-09T02:56:25.165Z,99.90
2018-07-09T02:58:53.519Z,99.90
2018-07-09T03:01:21.844Z,99.90
2018-07-09T03:06:18.777Z,99.90
2018-07-09T03:11:16.800Z,99.90
2018-07-09T03:13:45.402Z,99.90
2018-07-09T03:16:13.737Z,99.90
2018-07-09T03:18:42.093Z,99.90
2018-07-09T03:21:10.720Z,99.90
2018-07-09T03:23:39.086Z,99.90
2018-07-09T03:26:07.444Z,99.90
2018-07-09T03:28:36.221Z,99.90
2018-07-09T03:31:04.545Z,99.90
2018-07-09T03:33:32.869Z,99.90
2018-07-09T03:36:01.430Z,99.90
2018-07-09T03:38:29.736Z,99.90
2018-07-09T03:41:12.932Z,99.90
2018-07-09T03:43:41.276Z,99.90
2018-07-09T03:46:10.061Z,99.90
2018-07-09T03:48:38.392Z,99.90
2018-07-09T03:51:06.708Z,99.90
2018-07-09T03:53:35.073Z,99.90
2018-07-09T03:56:03.928Z,99.90
2018-07-09T03:58:32.257Z,99.90
2018-07-09T04:01:00.941Z,99.90
2018-07-09T04:03:29.279Z,99.90
2018-07-09T04:05:57.941Z,99.90
2018-07-09T04:08:26.593Z,99.90
2018-07-09T04:10:54.925Z,99.90
2018-07-09T04:13:23.537Z,99.90
2018-07-09T04:15:52.382Z,99.90
2018-07-09T04:18:23.845Z,99.90
2018-07-09T04:20:53.199Z,99.90
2018-07-09T04:23:22.012Z,99.90
2018-07-09T04:25:50.827Z,99.90
2018-07-09T04:28:19.374Z,99.90
2018-07-09T04:30:48.657Z,99.90
2018-07-09T04:33:17.100Z,99.90
2018-07-09T04:35:45.492Z,99.90
2018-07-09T04:38:14.251Z,99.90
2018-07-09T04:40:56.520Z,99.90
2018-07-09T04:43:25.732Z,99.90
2018-07-09T04:45:55.356Z,99.90
2018-07-09T04:48:24.768Z,99.90
2018-07-09T04:50:53.646Z,99.90
2018-07-09T04:53:22.071Z,99.90
2018-07-09T04:55:50.420Z,99.90
2018-07-09T04:58:19.262Z,99.90
2018-07-09T05:00:47.661Z,99.90
2018-07-09T05:03:16.373Z,99.90
2018-07-09T05:05:45.161Z,99.90
2018-07-09T05:08:13.581Z,99.90
2018-07-09T05:10:41.921Z,99.90
2018-07-09T05:13:11.339Z,99.90
2018-07-09T05:18:07.764Z,99.90
2018-07-09T05:20:36.803Z,99.90
2018-07-09T05:23:05.953Z,99.90
2018-07-09T05:25:34.364Z,99.90
2018-07-09T05:28:03.097Z,99.90
2018-07-09T05:30:31.473Z,99.90
2018-07-09T05:33:04.422Z,99.90
2018-07-09T05:35:35.289Z,99.90
2018-07-09T05:38:06.116Z,99.90
2018-07-09T05:40:35.040Z,99.90
2018-07-09T05:43:16.231Z,99.90
2018-07-09T05:45:44.672Z,99.90
2018-07-09T05:48:13.312Z,99.90
2018-07-09T05:53:12.181Z,99.90
2018-07-09T05:55:40.984Z,99.90
2018-07-09T05:58:09.444Z,99.90
2018-07-09T06:00:37.824Z,99.90
2018-07-09T06:03:07.312Z,99.90
2018-07-09T06:05:35.699Z,99.90
2018-07-09T06:08:19.311Z,99.90
2018-07-09T06:11:10.992Z,99.90
2018-07-09T06:13:40.307Z,99.90
2018-07-09T06:16:29.191Z,99.90
2018-07-09T06:19:13.836Z,99.90
2018-07-09T06:21:42.263Z,99.90
2018-07-09T06:24:12.055Z,99.90
2018-07-09T06:26:40.497Z,99.90
2018-07-09T06:29:10.850Z,99.90
2018-07-09T06:31:39.199Z,99.90
2018-07-09T06:34:07.584Z,99.90
2018-07-09T06:36:58.222Z,99.90
2018-07-09T06:39:32.740Z,99.90
2018-07-09T06:42:02.200Z,99.90
2018-07-09T06:44:31.393Z,99.70
2018-07-09T06:46:59.738Z,99.90
2018-07-09T06:49:28.389Z,99.90
2018-07-09T06:52:13.557Z,99.90
2018-07-09T06:54:45.199Z,99.90
2018-07-09T06:57:13.551Z,99.90
2018-07-09T06:59:41.956Z,99.90
2018-07-09T07:02:11.578Z,99.90
2018-07-09T07:08:28.942Z,99.90
2018-07-09T07:14:03.852Z,99.90
2018-07-09T07:16:32.626Z,99.90
2018-07-09T07:19:02.384Z,99.90
2018-07-09T07:21:31.438Z,99.90
2018-07-09T07:23:59.849Z,99.90
2018-07-09T07:26:28.667Z,99.60
2018-07-09T07:28:57.421Z,99.00
2018-07-09T07:31:29.983Z,96.90
2018-07-09T07:34:04.924Z,96.50
2018-07-09T07:36:34.209Z,96.90
2018-07-09T07:39:02.685Z,98.00
2018-07-09T07:41:32.044Z,99.90
2018-07-09T07:44:00.826Z,99.90
2018-07-09T07:46:29.919Z,99.90
2018-07-09T07:54:47.801Z,98.40
2018-07-09T07:57:16.533Z,99.80
2018-07-09T07:59:44.895Z,99.90
2018-07-09T08:02:13.421Z,99.90
2018-07-09T08:07:56.487Z,99.90
2018-07-09T08:10:26.360Z,99.90
2018-07-09T08:13:27.719Z,99.90
2018-07-09T08:15:42.450Z,96.70
2018-07-09T08:20:38.768Z,94.50
2018-07-09T08:23:15.253Z,90.80
2018-07-09T08:25:45.097Z,84.40
2018-07-09T08:28:13.273Z,77.50
2018-07-09T08:33:11.186Z,87.90
2018-07-09T08:35:41.077Z,90.60
2018-07-09T08:41:01.200Z,89.90
2018-07-09T08:43:29.676Z,86.00
2018-07-09T08:48:27.560Z,87.60
2018-07-09T08:53:25.919Z,90.90
2018-07-09T08:55:55.572Z,89.80
2018-07-09T08:58:23.925Z,93.00
2018-07-09T09:00:52.284Z,93.70
2018-07-09T09:03:21.041Z,93.20
2018-07-09T09:05:49.380Z,94.70
2018-07-09T09:08:17.779Z,96.50
2018-07-09T09:10:46.476Z,94.30
2018-07-09T09:13:14.926Z,93.40
2018-07-09T09:15:43.296Z,90.70
2018-07-09T09:18:12.029Z,88.10
2018-07-09T09:20:40.659Z,92.00
2018-07-09T09:23:09.082Z,86.10
2018-07-09T09:25:38.024Z,79.60
2018-07-09T09:28:06.399Z,80.20
2018-07-09T09:30:34.979Z,82.00
2018-07-09T09:33:04.308Z,87.60
2018-07-09T09:38:59.962Z,93.10
2018-07-09T09:41:28.400Z,94.80
2018-07-09T09:44:03.297Z,96.00
2018-07-09T09:46:33.140Z,97.20
2018-07-09T09:49:01.516Z,99.10
2018-07-09T09:51:29.897Z,98.30
2018-07-09T09:53:58.666Z,99.90
2018-07-09T09:56:27.012Z,99.90
2018-07-09T09:58:55.441Z,99.90
2018-07-09T10:01:24.096Z,99.90
2018-07-09T10:03:52.640Z,99.90
2018-07-09T10:06:20.960Z,99.90
2018-07-09T10:08:49.995Z,98.70
2018-07-09T10:11:18.427Z,98.20
2018-07-09T10:13:47.062Z,94.20
2018-07-09T10:18:48.677Z,92.10
2018-07-09T10:21:17.318Z,93.00
2018-07-09T10:23:51.113Z,94.90
2018-07-09T10:29:13.841Z,92.70
2018-07-09T10:31:43.001Z,93.50
2018-07-09T10:40:04.493Z,98.00
2018-07-09T10:42:34.740Z,94.30
2018-07-09T10:45:03.329Z,94.00
2018-07-09T10:47:32.152Z,93.10
2018-07-09T10:50:01.079Z,92.00
2018-07-09T10:52:29.566Z,93.40
2018-07-09T10:54:58.562Z,93.50
2018-07-09T10:57:27.553Z,92.10
2018-07-09T10:59:55.997Z,93.20
2018-07-09T11:05:13.179Z,95.80
2018-07-09T11:10:10.633Z,94.20
2018-07-09T11:16:00.688Z,95.80
2018-07-09T11:18:30.632Z,92.20
2018-07-09T11:20:59.468Z,91.50
2018-07-09T11:23:27.779Z,91.00
2018-07-09T11:25:56.125Z,87.50
2018-07-09T11:28:27.706Z,88.90
2018-07-09T11:30:56.193Z,88.80
2018-07-09T11:33:28.395Z,88.10
2018-07-09T11:35:58.966Z,90.90
2018-07-09T11:38:27.308Z,88.30
2018-07-09T11:40:56.250Z,90.10
2018-07-09T11:43:25.009Z,89.20
2018-07-09T11:45:53.942Z,91.80
2018-07-09T11:50:50.783Z,94.70
2018-07-09T11:53:19.379Z,94.00
2018-07-09T11:55:48.092Z,93.00
2018-07-09T12:00:44.976Z,91.90
2018-07-09T12:03:13.511Z,90.80
2018-07-09T12:08:10.702Z,88.80
2018-07-09T12:10:39.773Z,90.00
2018-07-09T12:13:12.624Z,89.50
2018-07-09T12:15:41.053Z,90.90
2018-07-09T12:18:33.189Z,90.40
2018-07-09T12:21:08.375Z,90.80
2018-07-09T12:23:37.561Z,90.70
2018-07-09T12:26:05.898Z,92.70
2018-07-09T12:28:43.257Z,93.20
2018-07-09T12:35:11.523Z,91.00
2018-07-09T12:38:15.018Z,90.50
2018-07-09T12:40:46.162Z,90.50
2018-07-09T12:43:17.199Z,92.00
2018-07-09T12:45:46.438Z,93.80
2018-07-09T12:48:59.528Z,96.10
2018-07-09T12:51:29.486Z,95.40
2018-07-09T12:54:00.235Z,93.10
2018-07-09T12:56:33.633Z,93.50
2018-07-09T12:59:08.914Z,93.40
2018-07-09T13:01:37.422Z,92.40
2018-07-09T13:06:42.393Z,95.10
2018-07-09T13:09:12.553Z,95.00
2018-07-09T13:11:48.022Z,97.30
2018-07-09T13:14:18.459Z,93.70
2018-07-09T13:16:50.648Z,94.20
2018-07-09T13:19:22.190Z,95.00
2018-07-09T13:21:51.613Z,95.50
2018-07-09T13:24:20.862Z,94.70
2018-07-09T13:26:51.260Z,94.20
2018-07-09T13:29:20.283Z,92.80
2018-07-09T13:31:48.672Z,93.00
2018-07-09T13:34:17.073Z,94.40
2018-07-09T13:36:45.842Z,94.90
2018-07-09T13:39:18.148Z,94.00
2018-07-09T13:41:59.181Z,94.40
2018-07-09T13:44:31.480Z,92.40
2018-07-09T13:46:59.852Z,92.30
2018-07-09T13:49:28.183Z,91.80
2018-07-09T13:51:58.758Z,93.10
2018-07-09T13:54:27.201Z,94.50
2018-07-09T13:56:56.137Z,93.00
2018-07-09T13:59:24.976Z,93.20
2018-07-09T14:06:57.717Z,94.60
2018-07-09T14:09:58.671Z,93.60
2018-07-09T14:12:40.818Z,93.80
2018-07-09T14:15:09.164Z,94.30
2018-07-09T14:17:37.758Z,93.60
2018-07-09T14:20:14.585Z,93.20
2018-07-09T14:22:43.796Z,92.50
2018-07-09T14:25:12.150Z,94.10
2018-07-09T14:27:40.557Z,93.70
2018-07-09T14:30:11.955Z,94.10
2018-07-09T14:32:40.505Z,94.20
2018-07-09T14:35:44.175Z,94.80
2018-07-09T14:38:14.385Z,94.10
2018-07-09T14:43:11.087Z,95.20
2018-07-09T14:45:39.489Z,95.00
2018-07-09T14:48:08.266Z,94.70
2018-07-09T14:50:37.023Z,97.10
2018-07-09T14:53:05.505Z,94.70
2018-07-09T14:55:34.943Z,94.80
2018-07-09T14:58:05.342Z,94.80
2018-07-09T15:00:33.826Z,94.80
2018-07-09T15:03:02.288Z,95.30
2018-07-09T15:05:31.645Z,95.00
2018-07-09T15:08:01.364Z,95.30
2018-07-09T15:10:29.705Z,97.30
2018-07-09T15:13:05.417Z,94.60
2018-07-09T15:15:38.487Z,95.50
2018-07-09T15:19:46.052Z,95.60
2018-07-09T15:22:15.393Z,96.10
2018-07-09T15:27:12.252Z,94.70
2018-07-09T15:29:41.556Z,95.20
2018-07-09T15:32:24.708Z,95.00
2018-07-09T15:34:56.008Z,95.50
2018-07-09T15:40:29.132Z,94.80
2018-07-09T15:49:42.147Z,94.60
2018-07-09T15:52:15.737Z,95.10
2018-07-09T15:54:44.286Z,96.10
2018-07-09T15:57:18.267Z,94.10
2018-07-09T16:02:33.314Z,95.40
2018-07-09T16:05:20.549Z,97.60
2018-07-09T16:07:49.509Z,95.40
2018-07-09T16:10:17.903Z,96.40
2018-07-09T16:12:46.267Z,99.20
2018-07-09T16:15:15.028Z,96.80
2018-07-09T16:20:11.803Z,99.90
2018-07-09T16:22:40.714Z,98.70
2018-07-09T16:25:09.164Z,97.30
2018-07-09T16:27:45.877Z,99.70
2018-07-09T16:30:16.839Z,99.40
2018-07-09T16:32:45.452Z,99.30
2018-07-09T16:35:14.265Z,99.90
2018-07-09T16:40:12.231Z,99.90
2018-07-09T16:42:49.102Z,99.90
2018-07-09T16:45:18.414Z,99.90
2018-07-09T16:47:49.026Z,99.90
2018-07-09T16:50:19.624Z,99.90
2018-07-09T16:52:47.988Z,99.90
2018-07-09T16:55:16.376Z,99.90
2018-07-09T16:57:46.644Z,99.90
2018-07-09T17:00:15.097Z,99.90
2018-07-09T17:02:43.515Z,99.90
2018-07-09T17:05:13.548Z,99.90
2018-07-09T17:07:41.932Z,99.90
2018-07-09T17:10:10.289Z,99.90
2018-07-09T17:12:39.596Z,99.90
2018-07-09T17:15:07.994Z,99.90
2018-07-09T17:17:36.370Z,99.90
2018-07-09T17:22:33.405Z,99.90
2018-07-09T17:25:01.740Z,99.90
2018-07-09T17:27:30.646Z,99.90
2018-07-09T17:29:59.023Z,99.90
2018-07-09T17:32:27.477Z,99.90
2018-07-09T17:34:56.398Z,99.90
2018-07-09T17:37:24.626Z,99.90
2018-07-09T17:39:54.140Z,99.90
2018-07-09T17:44:51.106Z,99.90
2018-07-09T17:49:55.136Z,99.90
2018-07-09T17:52:23.524Z,99.90
2018-07-09T17:54:51.888Z,99.90
2018-07-09T17:57:22.501Z,99.90
2018-07-09T18:02:19.047Z,99.90
2018-07-09T18:04:47.855Z,99.90
2018-07-09T18:07:16.472Z,99.90
2018-07-09T18:09:44.871Z,99.90
2018-07-09T18:12:13.616Z,99.90
2018-07-09T18:14:42.654Z,99.90
2018-07-09T18:17:11.649Z,99.90
2018-07-09T18:19:41.501Z,99.90
2018-07-09T18:22:12.786Z,99.90
2018-07-09T18:24:41.575Z,99.90
2018-07-09T18:27:10.818Z,99.90
2018-07-09T18:29:39.319Z,99.90
2018-07-09T18:34:36.100Z,99.90
2018-07-09T18:37:04.475Z,99.90
2018-07-09T18:39:32.889Z,99.90
2018-07-09T18:42:01.553Z,99.90
2018-07-09T18:44:30.540Z,99.90
2018-07-09T18:46:59.628Z,99.90
2018-07-09T18:49:28.848Z,99.90
2018-07-09T18:51:57.532Z,99.90
2018-07-09T18:54:26.117Z,99.90
2018-07-09T18:56:54.951Z,99.90
2018-07-09T18:59:23.300Z,99.90
2018-07-09T19:01:51.698Z,99.90
2018-07-09T19:04:21.859Z,99.90
2018-07-09T19:06:52.997Z,99.90
2018-07-09T19:09:23.225Z,99.90
2018-07-09T19:11:52.008Z,99.90
2018-07-09T19:14:20.861Z,99.90
2018-07-09T19:16:54.816Z,99.90
2018-07-09T19:19:30.113Z,99.90
2018-07-09T19:21:59.364Z,99.90
2018-07-09T19:24:27.776Z,99.90
2018-07-09T19:26:56.418Z,99.90
2018-07-09T19:29:24.501Z,99.90
2018-07-09T19:31:52.684Z,99.90
2018-07-09T19:34:20.467Z,99.90
2018-07-09T19:36:48.278Z,99.90
2018-07-09T19:39:16.355Z,99.90
2018-07-09T19:41:44.150Z,99.90
2018-07-09T19:44:12.441Z,99.90
2018-07-09T19:46:41.153Z,99.90
2018-07-09T19:49:11.085Z,99.90
2018-07-09T19:51:39.498Z,99.90
2018-07-09T19:54:08.337Z,99.90
2018-07-09T19:56:36.115Z,99.90
2018-07-09T19:59:03.908Z,99.90
2018-07-09T20:01:32.094Z,99.90
2018-07-09T20:04:01.021Z,99.90
2018-07-09T20:06:34.665Z,99.90
2018-07-09T20:09:08.280Z,99.90
2018-07-09T20:12:01.389Z,99.90
2018-07-09T20:14:35.116Z,99.90
2018-07-09T20:17:09.708Z,99.90
2018-07-09T20:19:37.745Z,99.90
2018-07-09T20:22:05.518Z,99.90
2018-07-09T20:24:34.568Z,99.90
2018-07-09T20:27:03.814Z,99.90
2018-07-09T20:29:31.502Z,99.90
2018-07-09T20:31:59.310Z,99.90
2018-07-09T20:34:27.501Z,99.90
2018-07-09T20:36:58.168Z,99.90
2018-07-09T20:39:26.350Z,99.90
2018-07-09T20:41:54.452Z,99.90
2018-07-09T20:44:22.276Z,99.90
2018-07-09T20:46:50.101Z,99.90
2018-07-09T20:49:18.198Z,99.90
2018-07-09T20:54:44.837Z,99.90
2018-07-09T20:57:12.830Z,99.90
2018-07-09T20:59:40.672Z,99.90
2018-07-09T21:02:08.775Z,99.90
2018-07-09T21:04:36.617Z,99.90
2018-07-09T21:07:11.046Z,99.90
2018-07-09T21:09:39.198Z,99.90
2018-07-09T21:12:08.110Z,99.90
2018-07-09T21:21:05.108Z,99.90
2018-07-09T21:23:32.877Z,99.90
2018-07-09T21:26:01.044Z,99.90
2018-07-09T21:28:29.333Z,99.90
2018-07-09T21:30:57.187Z,99.90
2018-07-09T21:33:25.001Z,99.90
2018-07-09T21:38:21.043Z,99.90
2018-07-09T21:40:48.821Z,99.90
2018-07-09T21:43:16.999Z,99.90
2018-07-09T21:45:44.799Z,99.90
2018-07-09T21:48:12.553Z,99.90
2018-07-09T21:50:40.716Z,99.90
2018-07-09T21:53:08.526Z,99.90
2018-07-09T21:55:36.301Z,99.90
2018-07-09T22:00:32.343Z,99.90
2018-07-09T22:03:00.126Z,99.90
2018-07-09T22:05:27.887Z,99.90
2018-07-09T22:07:55.752Z,99.90
2018-07-09T22:10:24.957Z,99.90
2018-07-09T22:12:52.804Z,99.90
2018-07-09T22:15:20.549Z,99.90
2018-07-09T22:20:17.058Z,99.90
2018-07-09T22:22:45.003Z,99.90
2018-07-09T22:25:13.193Z,99.90
2018-07-09T22:27:40.964Z,99.90
2018-07-09T22:30:08.814Z,99.90
2018-07-09T22:32:37.622Z,99.90
2018-07-09T22:35:06.044Z,99.90
2018-07-09T22:37:34.361Z,99.90
2018-07-09T22:40:03.038Z,99.90
2018-07-09T22:42:31.420Z,99.90
2018-07-09T22:44:59.735Z,99.90
2018-07-09T22:47:28.477Z,99.90
2018-07-09T22:49:56.817Z,99.90
2018-07-09T22:52:25.131Z,99.90
2018-07-09T22:54:59.338Z,99.90
2018-07-09T22:57:27.699Z,99.90
2018-07-09T22:59:56.057Z,99.90
2018-07-09T23:02:24.737Z,99.90
2018-07-09T23:04:54.079Z,99.90
2018-07-09T23:07:23.233Z,99.90
2018-07-09T23:10:06.355Z,99.90
2018-07-09T23:12:40.151Z,99.90
2018-07-09T23:15:22.882Z,99.90
2018-07-09T23:17:56.921Z,99.90
2018-07-09T23:20:34.295Z,99.90
2018-07-09T23:23:02.071Z,99.90
2018-07-09T23:25:29.893Z,99.90
2018-07-09T23:27:57.949Z,99.90
2018-07-09T23:30:25.768Z,99.90
2018-07-09T23:32:53.633Z,99.90
2018-07-09T23:35:21.658Z,99.90
2018-07-09T23:37:49.468Z,99.90
2018-07-09T23:40:17.281Z,99.90
2018-07-09T23:42:46.297Z,99.90
2018-07-09T23:45:14.089Z,99.90
2018-07-09T23:47:41.918Z,99.90
2018-07-09T23:50:10.044Z,99.90
2018-07-09T23:52:37.884Z,99.90
2018-07-09T23:55:05.729Z,99.90
2018-07-09T23:59:42.620Z,99.90
